Time;durP1;ratioP1;P1;durP2;ratioP2;P2;SDS_P1;SDS_P2;PMS_P1;PMS_P2;Temp;Humidity;BMP_temperature;BMP_pressure;BME280_temperature;BME280_humidity;BME280_pressure;Samples;Min_cycle;Max_cycle;Signal;HPM_P1;HPM_P2
2023/01/14 00:01:20;;;;;;;21.30;12.43;;;;;;;5.78;75.03;98450.00;5071098;28;20473;-70
2023/01/14 00:03:47;;;;;;;17.42;11.50;;;;;;;5.80;75.35;98452.47;5070933;28;20051;-70
2023/01/14 00:06:15;;;;;;;14.27;9.40;;;;;;;5.78;75.19;98443.75;5071062;28;20660;-71
2023/01/14 00:08:41;;;;;;;15.13;9.57;;;;;;;5.77;75.36;98450.28;5071563;28;20503;-70
2023/01/14 00:11:08;;;;;;;13.18;9.15;;;;;;;5.73;75.58;98449.97;4969909;28;20106;-70
2023/01/14 00:13:36;;;;;;;17.02;10.18;;;;;;;5.72;75.58;98444.81;4970158;28;20022;-70
2023/01/14 00:16:02;;;;;;;13.45;9.63;;;;;;;5.69;75.41;98445.34;4970168;28;20062;-71
2023/01/14 00:18:31;;;;;;;16.15;10.48;;;;;;;5.66;75.78;98449.41;4969752;28;20041;-70
2023/01/14 00:21:10;;;;;;;13.33;9.40;;;;;;;5.63;75.29;98444.50;4969656;28;20073;-71
2023/01/14 00:23:36;;;;;;;17.20;9.75;;;;;;;5.63;75.04;98439.84;4969850;28;20121;-70
2023/01/14 00:26:11;;;;;;;15.52;10.05;;;;;;;5.60;75.34;98445.03;4969921;28;20027;-70
2023/01/14 00:28:37;;;;;;;16.88;10.30;;;;;;;5.60;75.10;98455.91;5034278;28;20423;-70
2023/01/14 00:31:06;;;;;;;21.70;14.18;;;;;;;5.60;74.89;98455.91;5070711;28;20025;-70
2023/01/14 00:33:32;;;;;;;17.47;11.17;;;;;;;5.60;74.92;98455.91;5070715;28;20020;-71
2023/01/14 00:35:59;;;;;;;17.35;10.93;;;;;;;5.57;75.01;98457.22;5070571;28;20275;-70
2023/01/14 00:38:24;;;;;;;15.88;9.10;;;;;;;5.56;75.05;98461.03;5070515;28;20115;-70
2023/01/14 00:40:59;;;;;;;15.70;8.80;;;;;;;5.55;75.33;98462.13;5070205;28;20096;-70
2023/01/14 00:43:25;;;;;;;16.13;9.65;;;;;;;5.58;75.36;98466.22;5070852;28;20029;-71
2023/01/14 00:45:51;;;;;;;17.05;9.95;;;;;;;5.60;75.41;98475.75;5070670;28;20499;-71
2023/01/14 00:48:17;;;;;;;15.40;9.32;;;;;;;5.64;75.45;98476.06;5069840;28;20042;-70
2023/01/14 00:50:44;;;;;;;15.52;10.05;;;;;;;5.66;75.34;98482.88;5070313;28;20099;-70
2023/01/14 00:53:09;;;;;;;13.90;8.77;;;;;;;5.66;75.58;98476.63;5070164;28;20025;-70
2023/01/14 00:55:34;;;;;;;16.35;9.50;;;;;;;5.67;75.40;98478.25;5070217;28;20032;-71
2023/01/14 00:58:00;;;;;;;21.00;11.77;;;;;;;5.65;75.46;98483.94;5070081;28;20081;-70
2023/01/14 01:00:25;;;;;;;16.42;9.90;;;;;;;5.66;75.71;98490.22;5069936;28;20461;-70
2023/01/14 01:02:51;;;;;;;15.13;8.68;;;;;;;5.66;75.56;98495.66;5051044;28;20038;-70
2023/01/14 01:05:16;;;;;;;14.77;9.20;;;;;;;5.69;75.73;98488.88;4969336;28;20050;-69
2023/01/14 01:07:42;;;;;;;14.52;8.85;;;;;;;5.71;75.58;98503.03;4968029;28;20152;-70
2023/01/14 01:10:08;;;;;;;14.70;9.05;;;;;;;5.71;75.56;98495.66;4966108;28;20035;-70
2023/01/14 01:12:33;;;;;;;17.08;10.13;;;;;;;5.74;75.74;98494.34;4967588;28;20119;-70
2023/01/14 01:14:59;;;;;;;18.45;11.05;;;;;;;5.75;75.76;98493.25;4985516;28;20547;-71
2023/01/14 01:17:24;;;;;;;13.88;9.05;;;;;;;5.74;75.61;98484.25;5068434;28;20082;-70
2023/01/14 01:19:52;;;;;;;11.80;8.13;;;;;;;5.70;75.58;98480.47;5068161;28;20036;-69
2023/01/14 01:22:17;;;;;;;12.35;7.72;;;;;;;5.69;75.46;98480.69;5067587;28;20377;-70
2023/01/14 01:24:43;;;;;;;12.93;7.68;;;;;;;5.66;75.55;98492.94;5070351;28;20035;-70
2023/01/14 01:27:08;;;;;;;14.60;7.90;;;;;;;5.63;75.46;98477.16;5070333;28;20028;-70
2023/01/14 01:29:34;;;;;;;11.77;7.78;;;;;;;5.60;75.35;98478.47;4983124;28;20023;-70
2023/01/14 01:32:00;;;;;;;10.00;7.03;;;;;;;5.56;75.13;98471.91;4969124;28;20042;-70
2023/01/14 01:34:25;;;;;;;10.63;7.10;;;;;;;5.54;75.40;98474.06;5068775;28;20032;-70
2023/01/14 01:36:51;;;;;;;10.20;7.07;;;;;;;5.47;75.24;98468.88;5069931;28;20107;-71
2023/01/14 01:39:16;;;;;;;12.32;7.10;;;;;;;5.46;75.75;98480.03;5070093;28;20209;-70
2023/01/14 01:41:41;;;;;;;10.27;6.90;;;;;;;5.45;75.35;98475.69;4999342;28;20605;-70
2023/01/14 01:44:13;;;;;;;11.05;6.80;;;;;;;5.44;75.30;98485.72;4969201;28;20092;-70
2023/01/14 01:46:40;;;;;;;12.52;7.05;;;;;;;5.43;75.68;98492.25;4968857;28;20106;-70
2023/01/14 01:49:13;;;;;;;10.70;6.13;;;;;;;5.43;75.20;98497.69;4968467;28;20450;-69
2023/01/14 01:51:52;;;;;;;10.70;6.97;;;;;;;5.42;75.70;98506.13;4968636;28;20045;-70
2023/01/14 01:54:22;;;;;;;10.15;6.45;;;;;;;5.44;75.09;98501.25;4968408;28;20035;-70
2023/01/14 01:56:48;;;;;;;9.60;6.18;;;;;;;5.43;74.99;98497.69;4968478;28;20045;-70
2023/01/14 01:59:18;;;;;;;8.98;6.30;;;;;;;5.45;75.49;98505.59;4969720;28;20049;-70
2023/01/14 02:01:45;;;;;;;9.57;6.88;;;;;;;5.44;74.90;98504.75;4971881;28;20122;-70
2023/01/14 02:04:12;;;;;;;10.15;6.63;;;;;;;5.43;75.31;98502.31;4972109;28;20065;-70
2023/01/14 02:06:37;;;;;;;12.05;7.63;;;;;;;5.41;74.88;98497.13;4971960;28;20044;-70
2023/01/14 02:09:04;;;;;;;11.30;7.13;;;;;;;5.39;74.78;98495.75;4971902;28;20076;-70
2023/01/14 02:11:49;;;;;;;11.70;7.25;;;;;;;5.38;74.85;98497.66;4972178;28;20027;-70
2023/01/14 02:14:49;;;;;;;11.18;7.22;;;;;;;5.42;74.83;98517.00;4971644;28;20042;-70
2023/01/14 02:17:27;;;;;;;8.80;5.88;;;;;;;5.49;75.27;98520.31;4971755;28;20034;-70
2023/01/14 02:20:01;;;;;;;12.13;6.82;;;;;;;5.53;74.85;98520.59;4971780;28;20084;-70
2023/01/14 02:22:44;;;;;;;9.75;6.53;;;;;;;5.56;75.16;98523.59;4971370;28;20042;-70
2023/01/14 02:25:21;;;;;;;11.05;6.43;;;;;;;5.60;74.77;98527.44;4970497;28;20433;-70
2023/01/14 02:28:07;;;;;;;14.68;8.20;;;;;;;5.62;74.95;98528.00;4971665;28;20034;-70
2023/01/14 02:30:44;;;;;;;10.25;7.53;;;;;;;5.61;75.00;98533.72;4971581;28;20180;-70
2023/01/14 02:33:32;;;;;;;14.15;9.20;;;;;;;5.60;74.97;98532.88;4971589;28;20031;-70
2023/01/14 02:36:12;;;;;;;14.50;8.98;;;;;;;5.57;74.90;98530.69;5008669;28;20039;-70
2023/01/14 02:39:01;;;;;;;15.35;10.02;;;;;;;5.51;74.53;98538.00;5073267;28;20032;-70
2023/01/14 02:44:29;;;;;;;12.35;7.70;;;;;;;5.43;74.20;98545.84;4971566;28;20509;-70
2023/01/14 02:47:09;;;;;;;12.85;7.43;;;;;;;5.36;74.59;98536.00;4971268;28;20041;-70
2023/01/14 02:49:40;;;;;;;10.43;7.07;;;;;;;5.33;74.85;98536.50;4970911;28;20027;-71
2023/01/14 02:52:06;;;;;;;12.02;7.85;;;;;;;5.31;74.52;98546.00;4971549;28;20027;-70
2023/01/14 02:54:31;;;;;;;18.85;9.40;;;;;;;5.30;74.62;98552.53;4969341;28;20042;-70
2023/01/14 02:57:03;;;;;;;15.15;8.70;;;;;;;5.29;74.92;98559.88;4967156;28;20388;-73
2023/01/14 02:59:34;;;;;;;15.90;8.57;;;;;;;5.28;74.85;98551.97;4968574;28;20449;-69
2023/01/14 03:02:12;;;;;;;13.93;8.20;;;;;;;5.29;75.06;98556.34;4969219;28;20027;-68
2023/01/14 03:04:59;;;;;;;9.82;7.32;;;;;;;5.25;74.78;98556.03;4971144;28;20088;-68
2023/01/14 03:07:49;;;;;;;11.18;7.00;;;;;;;5.25;74.72;98561.47;5072109;28;20111;-68
2023/01/14 03:10:30;;;;;;;9.25;7.40;;;;;;;5.24;74.73;98562.53;5021927;28;20117;-68
2023/01/14 03:13:08;;;;;;;10.88;7.40;;;;;;;5.22;74.82;98562.81;4968081;28;20859;-69
2023/01/14 03:15:34;;;;;;;15.48;9.48;;;;;;;5.18;74.60;98566.28;4971307;28;20058;-70
2023/01/14 03:18:30;;;;;;;13.15;8.15;;;;;;;5.13;74.51;98561.63;4972351;28;20093;-71
2023/01/14 03:21:01;;;;;;;11.93;7.63;;;;;;;5.12;74.49;98553.72;4963902;28;20035;-70
2023/01/14 03:23:32;;;;;;;11.85;8.05;;;;;;;5.11;74.75;98557.50;4966910;28;20428;-70
2023/01/14 03:26:00;;;;;;;11.18;6.97;;;;;;;5.10;74.72;98561.31;4966798;28;20439;-70
2023/01/14 03:28:32;;;;;;;10.52;7.00;;;;;;;5.06;74.38;98569.16;4969087;28;20163;-70
2023/01/14 03:31:07;;;;;;;10.52;7.20;;;;;;;5.01;74.43;98572.66;4968224;28;20116;-70
2023/01/14 03:33:43;;;;;;;12.10;7.35;;;;;;;5.00;74.62;98579.19;4968653;28;20144;-71
2023/01/14 03:36:11;;;;;;;12.57;7.88;;;;;;;4.97;74.91;98574.25;4964814;28;20754;-70
2023/01/14 03:38:42;;;;;;;11.60;7.47;;;;;;;4.97;74.33;98578.84;4983826;28;20027;-70
2023/01/14 03:41:11;;;;;;;10.52;7.28;;;;;;;4.97;74.61;98582.41;4966770;28;20042;-71
2023/01/14 03:43:48;;;;;;;12.40;7.40;;;;;;;4.98;74.82;98592.22;4977893;28;20114;-70
2023/01/14 03:46:13;;;;;;;9.00;6.70;;;;;;;5.01;75.15;98588.97;4982573;28;20809;-71
2023/01/14 03:48:39;;;;;;;11.40;7.45;;;;;;;5.04;74.84;98590.34;4967675;28;20106;-71
2023/01/14 03:51:21;;;;;;;11.70;7.55;;;;;;;5.05;74.80;98586.56;4966165;28;20067;-71
2023/01/14 03:54:21;;;;;;;12.00;8.00;;;;;;;5.05;74.60;98592.84;4965356;28;20030;-71
2023/01/14 03:57:05;;;;;;;12.48;6.97;;;;;;;5.06;74.69;98599.91;4967550;28;20035;-70
2023/01/14 03:59:46;;;;;;;12.02;8.32;;;;;;;5.05;74.67;98601.00;4977140;28;20035;-70
2023/01/14 04:02:13;;;;;;;10.80;6.97;;;;;;;5.05;74.60;98600.16;4968420;28;20550;-70
2023/01/14 04:04:41;;;;;;;10.65;6.38;;;;;;;5.01;74.70;98597.13;4967588;28;20054;-70
2023/01/14 04:07:07;;;;;;;10.82;7.20;;;;;;;4.99;74.59;98618.31;4968189;28;20031;-71
2023/01/14 04:09:33;;;;;;;11.05;7.57;;;;;;;4.96;74.81;98623.44;4967407;28;20038;-70
2023/01/14 04:11:58;;;;;;;14.68;9.05;;;;;;;4.95;74.76;98616.34;4968206;28;20018;-69
2023/01/14 04:17:08;;;;;;;9.85;7.35;;;;;;;4.91;74.84;98616.84;4967605;28;20038;-69
2023/01/14 04:19:33;;;;;;;11.82;7.57;;;;;;;4.89;74.59;98620.91;4967075;28;20043;-69
2023/01/14 04:21:58;;;;;;;15.70;9.82;;;;;;;4.89;74.58;98620.91;4966500;28;20034;-69
2023/01/14 04:24:24;;;;;;;13.90;8.75;;;;;;;4.85;74.96;98623.34;4967272;28;20026;-69
2023/01/14 04:26:49;;;;;;;12.30;8.57;;;;;;;4.83;74.59;98620.03;4967249;28;20022;-69
2023/01/14 04:29:15;;;;;;;11.40;8.05;;;;;;;4.79;74.63;98623.50;4967346;28;20667;-69
2023/01/14 04:31:40;;;;;;;10.02;7.03;;;;;;;4.74;74.82;98627.81;4967663;28;20062;-69
2023/01/14 04:34:05;;;;;;;9.88;6.57;;;;;;;4.71;74.38;98616.63;4967768;28;20035;-70
2023/01/14 04:36:31;;;;;;;11.45;6.57;;;;;;;4.69;74.87;98629.66;4967305;28;20102;-69
2023/01/14 04:38:56;;;;;;;10.88;6.40;;;;;;;4.66;75.14;98628.28;4966600;28;20025;-69
2023/01/14 04:44:06;;;;;;;11.13;6.47;;;;;;;4.58;74.36;98639.59;4967652;28;20088;-69
2023/01/14 04:46:31;;;;;;;12.45;6.78;;;;;;;4.54;74.65;98630.28;4967863;28;20023;-69
2023/01/14 04:48:56;;;;;;;9.95;6.28;;;;;;;4.50;74.86;98635.38;4967730;28;20441;-69
2023/01/14 04:51:22;;;;;;;11.02;6.28;;;;;;;4.49;74.98;98631.03;4967630;28;20387;-70
2023/01/14 04:53:47;;;;;;;9.85;6.07;;;;;;;4.48;74.26;98637.56;4967642;28;20069;-69
2023/01/14 04:56:13;;;;;;;8.57;5.30;;;;;;;4.45;74.64;98641.59;4967441;28;20472;-70
2023/01/14 04:58:38;;;;;;;8.23;5.22;;;;;;;4.45;74.63;98640.78;4967395;28;20054;-69
2023/01/14 05:01:04;;;;;;;7.50;5.30;;;;;;;4.46;74.57;98650.56;4966839;28;20042;-69
2023/01/14 05:03:29;;;;;;;8.82;5.32;;;;;;;4.42;74.63;98644.81;4964375;28;20031;-69
2023/01/14 05:05:54;;;;;;;9.63;5.20;;;;;;;4.42;74.85;98652.16;4966532;28;20058;-70
2023/01/14 05:08:20;;;;;;;8.60;5.07;;;;;;;4.41;74.66;98651.31;4965095;28;20479;-67
2023/01/14 05:10:49;;;;;;;7.38;4.97;;;;;;;4.43;75.03;98648.34;4966316;28;20110;-67
2023/01/14 05:13:15;;;;;;;7.38;4.30;;;;;;;4.45;74.99;98652.44;4967219;28;20038;-68
2023/01/14 05:15:43;;;;;;;5.82;4.20;;;;;;;4.51;74.99;98666.91;4966935;28;20030;-67
2023/01/14 05:18:11;;;;;;;8.30;5.18;;;;;;;4.55;74.60;98667.25;4966036;28;20033;-67
2023/01/14 05:20:37;;;;;;;9.70;5.28;;;;;;;4.59;74.83;98669.19;4966570;28;20038;-67
2023/01/14 05:23:06;;;;;;;6.80;4.82;;;;;;;4.63;75.09;98672.25;4966666;28;20475;-67
2023/01/14 05:25:34;;;;;;;9.13;4.97;;;;;;;4.68;74.75;98682.34;4966740;28;20096;-67
2023/01/14 05:28:00;;;;;;;10.15;5.15;;;;;;;4.71;74.92;98687.28;4966540;28;20019;-67
2023/01/14 05:30:26;;;;;;;8.30;5.18;;;;;;;4.74;74.78;98686.78;4966382;28;20045;-67
2023/01/14 05:33:00;;;;;;;8.55;5.78;;;;;;;4.76;74.51;98682.72;4966712;28;20023;-67
2023/01/14 05:35:25;;;;;;;8.90;5.63;;;;;;;4.79;74.36;98691.44;4969950;28;20093;-67
2023/01/14 05:37:51;;;;;;;9.55;5.15;;;;;;;4.81;75.12;98695.56;4969989;28;20169;-67
2023/01/14 05:40:16;;;;;;;9.75;5.57;;;;;;;4.82;75.05;98699.94;4970106;28;20046;-68
2023/01/14 05:45:40;;;;;;;13.85;6.55;;;;;;;4.86;74.43;98697.53;4969631;28;20447;-69
2023/01/14 05:48:08;;;;;;;11.60;7.38;;;;;;;4.86;74.50;98695.63;4970353;28;20054;-67
2023/01/14 05:50:34;;;;;;;10.27;6.55;;;;;;;4.88;74.48;98690.78;4966469;28;20042;-67
2023/01/14 05:52:59;;;;;;;8.05;4.75;;;;;;;4.90;74.76;98691.31;4969335;28;20031;-67
2023/01/14 05:55:24;;;;;;;9.00;5.65;;;;;;;4.93;74.95;98698.16;4969337;28;20034;-67
2023/01/14 05:57:50;;;;;;;10.55;6.65;;;;;;;4.97;74.63;98703.91;4969305;28;20459;-68
2023/01/14 06:08:28;;;;;;;6.60;4.00;;;;;;;5.01;74.62;98711.31;4970526;28;20077;-68
2023/01/14 06:10:54;;;;;;;7.25;3.63;;;;;;;5.03;74.54;98714.59;4970239;28;20098;-67
2023/01/14 06:13:22;;;;;;;7.63;4.25;;;;;;;5.03;74.16;98711.88;4969123;28;20648;-67
2023/01/14 06:15:55;;;;;;;7.70;4.35;;;;;;;5.03;74.49;98708.31;4966008;28;20474;-67
2023/01/14 06:18:23;;;;;;;6.80;3.60;;;;;;;5.03;74.19;98706.44;4969516;28;20046;-68
2023/01/14 06:20:53;;;;;;;8.45;3.83;;;;;;;5.01;74.28;98708.59;4969997;28;20109;-68
2023/01/14 06:23:21;;;;;;;8.98;3.90;;;;;;;5.00;73.94;98706.09;4970226;28;20030;-68
2023/01/14 06:25:48;;;;;;;8.13;3.90;;;;;;;4.97;73.74;98714.75;4970606;28;20019;-68
2023/01/14 06:28:15;;;;;;;7.10;3.97;;;;;;;4.95;73.89;98706.03;4969575;28;20045;-68
2023/01/14 06:30:41;;;;;;;9.73;4.65;;;;;;;4.94;74.38;98707.13;4969674;28;20364;-68
2023/01/14 06:33:08;;;;;;;9.77;4.65;;;;;;;4.90;74.09;98707.63;4969901;28;20027;-67
2023/01/14 06:35:39;;;;;;;6.50;4.10;;;;;;;4.89;73.98;98711.41;4970099;28;20033;-67
2023/01/14 06:38:04;;;;;;;7.18;3.90;;;;;;;4.88;73.62;98708.97;4968763;28;20027;-68
2023/01/14 06:40:29;;;;;;;7.63;4.18;;;;;;;4.85;74.06;98709.47;4969597;28;20156;-67
2023/01/14 06:42:56;;;;;;;7.80;3.88;;;;;;;4.82;73.77;98707.25;4969625;28;20046;-67
2023/01/14 06:45:22;;;;;;;8.70;4.25;;;;;;;4.77;73.55;98708.00;4968713;28;20475;-68
2023/01/14 06:47:48;;;;;;;7.93;3.60;;;;;;;4.75;74.20;98710.16;4969182;28;20145;-67
2023/01/14 06:50:14;;;;;;;7.97;3.53;;;;;;;4.72;74.15;98727.78;4969819;28;20054;-67
2023/01/14 06:52:39;;;;;;;7.78;3.85;;;;;;;4.72;74.14;98716.09;4973749;28;20459;-67
2023/01/14 06:55:05;;;;;;;8.02;3.92;;;;;;;4.70;73.68;98719.03;4969612;28;20034;-67
2023/01/14 06:57:31;;;;;;;20.75;9.63;;;;;;;4.72;74.29;98729.69;4968829;28;20541;-67
2023/01/14 06:59:56;;;;;;;10.77;6.10;;;;;;;4.72;74.22;98726.97;4968512;28;20046;-68
2023/01/14 07:02:21;;;;;;;10.65;6.65;;;;;;;4.75;74.02;98727.28;4969759;28;20042;-68
2023/01/14 07:04:47;;;;;;;38.00;15.45;;;;;;;4.80;74.16;98725.69;4968862;28;20038;-67
2023/01/14 07:07:12;;;;;;;10.90;6.47;;;;;;;4.84;73.65;98729.56;4969366;28;20030;-68
2023/01/14 07:09:38;;;;;;;14.98;7.82;;;;;;;4.85;73.95;98732.03;4969280;28;20026;-68
2023/01/14 07:12:03;;;;;;;7.68;4.28;;;;;;;4.87;73.74;98727.19;4969515;28;20384;-67
2023/01/14 07:14:29;;;;;;;10.52;5.20;;;;;;;4.88;73.70;98722.53;4969401;28;20031;-67
2023/01/14 07:16:54;;;;;;;12.40;6.20;;;;;;;4.90;73.86;98723.13;4969927;28;20456;-67
2023/01/14 07:19:20;;;;;;;10.43;5.20;;;;;;;4.91;74.28;98719.31;4969118;28;20395;-68
2023/01/14 07:21:45;;;;;;;8.65;4.90;;;;;;;4.90;74.04;98723.94;4971481;28;20035;-68
2023/01/14 07:24:12;;;;;;;10.00;4.88;;;;;;;4.91;73.45;98725.56;4970710;28;20066;-67
2023/01/14 07:26:37;;;;;;;7.80;4.70;;;;;;;4.90;73.95;98723.13;4969372;28;20019;-68
2023/01/14 07:29:03;;;;;;;11.38;5.97;;;;;;;4.90;73.40;98734.00;4968642;28;20137;-68
2023/01/14 07:31:28;;;;;;;15.45;10.32;;;;;;;4.91;74.11;98741.06;4970410;28;20383;-68
2023/01/14 07:33:53;;;;;;;16.98;10.57;;;;;;;4.92;73.93;98748.97;4969457;28;20105;-68
2023/01/14 07:36:19;;;;;;;15.88;9.55;;;;;;;4.95;73.75;98744.09;4984610;28;20027;-67
2023/01/14 07:38:44;;;;;;;12.38;7.50;;;;;;;4.98;73.79;98751.75;4968774;28;20027;-67
2023/01/14 07:41:17;;;;;;;16.42;8.10;;;;;;;5.01;73.83;98749.38;4987790;28;20038;-68
2023/01/14 07:43:47;;;;;;;18.67;9.48;;;;;;;5.06;74.22;98751.31;4968192;28;20394;-68
2023/01/14 07:46:12;;;;;;;23.27;11.53;;;;;;;5.09;73.82;98747.28;4968623;28;20043;-67
2023/01/14 07:48:38;;;;;;;20.48;10.63;;;;;;;5.12;73.58;98749.47;4968438;28;20777;-68
2023/01/14 07:51:04;;;;;;;20.17;11.15;;;;;;;5.15;73.98;98748.97;4968401;28;20069;-68
2023/01/14 07:53:30;;;;;;;21.77;11.75;;;;;;;5.18;73.95;98752.03;4968436;28;20031;-68
2023/01/14 07:55:55;;;;;;;28.23;15.75;;;;;;;5.20;74.09;98749.03;4968210;28;20037;-68
2023/01/14 07:58:23;;;;;;;28.20;15.73;;;;;;;5.23;73.82;98756.69;4968200;28;20480;-68
2023/01/14 08:00:48;;;;;;;20.25;11.43;;;;;;;5.25;73.68;98757.25;4971913;28;20038;-67
2023/01/14 08:03:14;;;;;;;19.83;12.70;;;;;;;5.28;73.71;98766.81;4989277;28;20039;-67
2023/01/14 08:05:39;;;;;;;20.17;11.60;;;;;;;5.30;73.62;98770.09;4968623;28;20019;-68
2023/01/14 08:08:05;;;;;;;18.90;10.35;;;;;;;5.32;73.69;98774.19;4968408;28;20065;-67
2023/01/14 08:10:31;;;;;;;16.95;9.77;;;;;;;5.33;73.83;98770.41;4973909;28;20063;-68
2023/01/14 08:12:56;;;;;;;17.67;8.95;;;;;;;5.37;73.60;98781.59;4967966;28;20191;-67
2023/01/14 08:15:21;;;;;;;17.83;10.82;;;;;;;5.41;73.88;98787.38;4968268;28;20076;-68
2023/01/14 08:17:47;;;;;;;15.80;9.95;;;;;;;5.45;74.04;98778.44;4968453;28;20046;-68
2023/01/14 08:20:13;;;;;;;18.30;10.32;;;;;;;5.48;73.89;98782.56;4967931;28;20080;-68
2023/01/14 08:22:38;;;;;;;23.27;11.32;;;;;;;5.48;73.48;98794.25;4968163;28;20058;-67
2023/01/14 08:25:05;;;;;;;19.23;10.40;;;;;;;5.48;74.00;98796.16;4980170;28;20357;-68
2023/01/14 08:27:31;;;;;;;16.50;9.65;;;;;;;5.48;73.34;98794.25;4968650;28;20514;-67
2023/01/14 08:29:57;;;;;;;26.70;13.07;;;;;;;5.50;73.99;98791.28;4981436;28;20044;-68
2023/01/14 08:32:23;;;;;;;19.35;10.43;;;;;;;5.49;73.41;98789.63;4968196;28;20031;-68
2023/01/14 08:34:49;;;;;;;18.90;9.32;;;;;;;5.49;73.46;98786.91;4968197;28;20038;-67
2023/01/14 08:37:15;;;;;;;23.40;10.93;;;;;;;5.49;73.87;98784.19;4967923;28;20084;-68
2023/01/14 08:39:40;;;;;;;24.02;11.63;;;;;;;5.49;73.32;98785.00;4967048;28;20042;-68
2023/01/14 08:42:05;;;;;;;18.27;9.82;;;;;;;5.49;73.48;98784.19;4968138;28;20022;-68
2023/01/14 08:44:31;;;;;;;24.40;11.75;;;;;;;5.49;73.73;98792.38;4967955;28;20552;-68
2023/01/14 08:46:57;;;;;;;26.23;10.15;;;;;;;5.49;73.83;98797.81;4967387;28;20019;-68
2023/01/14 08:49:23;;;;;;;20.20;9.27;;;;;;;5.49;73.19;98797.81;4981753;28;20032;-68
2023/01/14 08:51:49;;;;;;;18.73;10.50;;;;;;;5.50;73.61;98807.59;4968194;28;20407;-68
2023/01/14 08:54:14;;;;;;;17.80;7.68;;;;;;;5.53;73.36;98811.72;4967688;28;20023;-68
2023/01/14 08:56:40;;;;;;;19.05;10.52;;;;;;;5.56;73.84;98819.38;4967594;28;20151;-67
2023/01/14 08:59:05;;;;;;;16.88;8.50;;;;;;;5.59;73.71;98821.56;4967499;28;20046;-67
2023/01/14 09:01:30;;;;;;;14.88;8.02;;;;;;;5.61;73.16;98820.22;4967193;28;20488;-67
2023/01/14 09:04:00;;;;;;;14.43;7.22;;;;;;;5.64;73.62;98818.91;4967753;28;20011;-67
2023/01/14 09:06:26;;;;;;;14.88;6.72;;;;;;;5.66;73.18;98811.31;4967585;28;20030;-68
2023/01/14 09:17:12;;;;;;;13.93;7.88;;;;;;;5.78;72.91;98809.25;4967905;28;20045;-68
2023/01/14 09:19:42;;;;;;;13.25;6.80;;;;;;;5.85;72.98;98819.13;4967182;28;20030;-68
2023/01/14 09:22:10;;;;;;;15.77;8.13;;;;;;;5.86;72.91;98818.88;4967303;28;20026;-67
2023/01/14 09:24:35;;;;;;;14.70;7.38;;;;;;;5.89;72.89;98815.66;4966733;28;20030;-67
2023/01/14 09:27:01;;;;;;;15.18;7.68;;;;;;;5.94;73.15;98820.31;4966368;28;20031;-68
2023/01/14 09:29:26;;;;;;;17.23;6.70;;;;;;;5.97;73.12;98826.06;4966430;28;20403;-67
2023/01/14 09:31:52;;;;;;;13.40;6.10;;;;;;;6.00;72.67;98823.91;4967076;28;20841;-67
2023/01/14 09:34:18;;;;;;;15.18;7.88;;;;;;;6.03;72.93;98828.88;4966862;28;20078;-68
2023/01/14 09:36:43;;;;;;;15.70;7.22;;;;;;;6.05;72.62;98822.09;4966612;28;20018;-68
2023/01/14 09:39:09;;;;;;;15.82;7.43;;;;;;;6.10;72.65;98821.31;4966451;28;20736;-67
2023/01/14 09:41:39;;;;;;;16.48;8.70;;;;;;;6.11;72.30;98810.16;4966263;28;20068;-67
2023/01/14 09:44:08;;;;;;;17.55;8.10;;;;;;;6.14;72.62;98800.66;4966961;28;20749;-68
2023/01/14 09:46:35;;;;;;;16.88;8.60;;;;;;;6.16;72.17;98809.41;4966910;28;20058;-67
2023/01/14 09:49:02;;;;;;;17.02;7.93;;;;;;;6.22;72.52;98819.25;4967008;28;20053;-67
2023/01/14 09:51:44;;;;;;;17.02;8.25;;;;;;;6.24;72.59;98811.66;4966311;28;20459;-67
2023/01/14 09:54:18;;;;;;;18.38;9.23;;;;;;;6.33;72.45;98802.97;4966871;28;20034;-68
2023/01/14 09:56:50;;;;;;;16.50;7.68;;;;;;;6.38;72.24;98808.47;4965141;28;20041;-68
2023/01/14 09:59:55;;;;;;;12.55;6.88;;;;;;;6.42;72.12;98809.59;4964683;28;20035;-68
2023/01/14 10:02:27;;;;;;;11.50;6.20;;;;;;;6.49;72.55;98799.31;4966597;28;20387;-68
2023/01/14 10:05:10;;;;;;;11.85;6.35;;;;;;;6.56;72.00;98799.06;4965167;28;20068;-68
2023/01/14 10:07:35;;;;;;;11.68;6.32;;;;;;;6.62;72.14;98797.22;4965512;28;20031;-68
2023/01/14 10:10:03;;;;;;;11.93;6.63;;;;;;;6.67;71.95;98794.53;4966118;28;20446;-68
2023/01/14 10:12:37;;;;;;;17.60;8.02;;;;;;;6.73;71.71;98793.47;4966666;28;20031;-68
2023/01/14 10:15:17;;;;;;;12.93;6.32;;;;;;;6.77;71.75;98791.84;4963856;28;20262;-68
2023/01/14 10:17:49;;;;;;;11.73;5.30;;;;;;;6.81;71.66;98795.69;4965532;28;20033;-68
2023/01/14 10:20:24;;;;;;;9.70;5.20;;;;;;;6.84;71.30;98791.66;4967604;28;20096;-68
2023/01/14 10:22:57;;;;;;;14.63;6.13;;;;;;;6.87;70.75;98788.41;4969160;28;20034;-67
2023/01/14 10:25:23;;;;;;;11.05;5.75;;;;;;;6.88;70.71;98787.31;4969405;28;20023;-68
2023/01/14 10:27:53;;;;;;;11.65;5.68;;;;;;;6.91;70.52;98780.50;4969682;28;20027;-68
2023/01/14 10:30:22;;;;;;;;;;;;;;;6.91;70.83;98775.88;4974710;28;20034;-69
2023/01/14 10:32:50;;;;;;;12.15;5.10;;;;;;;6.96;70.78;98772.34;4966491;28;20036;-69
2023/01/14 10:35:19;;;;;;;10.02;4.68;;;;;;;6.96;70.44;98773.16;4987330;28;20034;-68
2023/01/14 10:37:44;;;;;;;11.15;4.57;;;;;;;7.00;70.43;98776.19;5013181;28;20031;-68
2023/01/14 10:40:22;;;;;;;10.48;4.68;;;;;;;7.02;70.55;98776.75;4981451;28;20083;-68
2023/01/14 10:42:47;;;;;;;11.90;5.00;;;;;;;7.06;70.08;98775.13;4968013;28;20107;-68
2023/01/14 10:45:13;;;;;;;10.57;4.68;;;;;;;7.08;69.46;98766.69;4974144;28;20023;-67
2023/01/14 10:47:39;;;;;;;8.13;4.40;;;;;;;7.09;69.79;98762.88;4989782;28;20030;-68
2023/01/14 10:50:15;;;;;;;8.77;4.15;;;;;;;7.11;69.63;98766.16;4988829;28;20109;-68
2023/01/14 10:52:43;;;;;;;8.27;4.00;;;;;;;7.17;69.56;98761.53;4991512;28;20042;-68
2023/01/14 10:55:21;;;;;;;10.70;4.50;;;;;;;7.21;70.31;98762.63;4956615;28;20027;-70
2023/01/14 10:57:49;;;;;;;11.25;5.43;;;;;;;7.27;69.97;98756.13;4991103;28;20164;-71
2023/01/14 11:00:50;;;;;;;12.07;4.22;;;;;;;7.34;69.34;98761.31;5020637;28;20137;-70
2023/01/14 11:03:27;;;;;;;7.82;3.90;;;;;;;7.38;68.95;98768.72;4971021;28;20039;-70
2023/01/14 11:06:06;;;;;;;11.25;6.30;;;;;;;7.43;69.04;98776.94;4969890;28;20034;-70
2023/01/14 11:08:47;;;;;;;10.02;4.57;;;;;;;7.45;68.61;98769.28;4969256;28;20038;-71
2023/01/14 11:11:15;;;;;;;9.57;5.05;;;;;;;7.50;69.37;98756.75;4980546;28;20031;-71
2023/01/14 11:13:44;;;;;;;10.02;4.57;;;;;;;7.54;68.84;98757.84;5025780;28;20035;-70
2023/01/14 11:16:21;;;;;;;11.00;4.85;;;;;;;7.57;68.32;98754.56;5021858;28;20036;-70
2023/01/14 11:19:16;;;;;;;13.40;5.85;;;;;;;7.58;68.81;98759.78;4974781;28;20585;-70
2023/01/14 11:21:43;;;;;;;10.38;4.60;;;;;;;7.64;68.88;98766.06;4982576;28;20036;-70
2023/01/14 11:24:35;;;;;;;8.90;4.60;;;;;;;7.67;69.14;98757.31;4972451;28;20068;-70
2023/01/14 11:27:14;;;;;;;7.05;4.00;;;;;;;7.72;68.66;98760.06;4965758;28;20108;-71
2023/01/14 11:29:52;;;;;;;6.72;3.40;;;;;;;7.77;68.36;98764.72;4959160;28;20027;-71
2023/01/14 11:32:29;;;;;;;21.50;8.07;;;;;;;7.74;68.41;98751.63;4974650;28;20048;-70
2023/01/14 11:34:58;;;;;;;28.42;13.15;;;;;;;7.76;68.14;98746.69;5007103;28;20147;-70
2023/01/14 11:37:30;;;;;;;46.80;20.08;;;;;;;7.79;68.43;98754.34;5013300;28;20023;-70
2023/01/14 11:39:58;;;;;;;24.52;12.30;;;;;;;7.87;68.38;98756.53;4970284;28;20027;-70
2023/01/14 11:42:26;;;;;;;12.00;7.03;;;;;;;7.98;68.64;98743.72;5008360;28;20029;-70
2023/01/14 11:45:11;;;;;;;11.52;6.00;;;;;;;8.06;68.59;98753.28;4983705;28;20060;-69
2023/01/14 11:47:50;;;;;;;12.23;5.45;;;;;;;8.12;69.00;98735.81;4974850;28;20048;-70
2023/01/14 11:50:20;;;;;;;12.07;6.15;;;;;;;8.16;68.33;98738.81;5001723;28;20496;-70
2023/01/14 11:53:18;;;;;;;14.10;7.35;;;;;;;8.16;68.13;98725.94;5008898;28;20034;-70
2023/01/14 11:55:49;;;;;;;12.73;6.07;;;;;;;8.20;67.94;98721.59;5010340;28;20038;-71
2023/01/14 11:58:14;;;;;;;15.82;5.68;;;;;;;8.27;68.75;98725.97;5024618;28;20041;-70
2023/01/14 12:00:41;;;;;;;11.30;5.78;;;;;;;8.30;67.74;98719.94;5018310;28;20050;-70
2023/01/14 12:03:20;;;;;;;11.43;6.00;;;;;;;8.35;68.07;98715.28;4978052;28;20031;-70
2023/01/14 12:05:46;;;;;;;12.85;5.65;;;;;;;8.41;68.22;98723.47;4985707;28;20421;-68
2023/01/14 12:08:17;;;;;;;12.40;6.85;;;;;;;8.47;68.08;98715.00;4968510;28;20057;-68
2023/01/14 12:10:47;;;;;;;10.05;5.63;;;;;;;8.51;67.96;98718.03;4979691;28;20058;-69
2023/01/14 12:19:18;;;;;;;10.38;5.18;;;;;;;8.61;66.69;98698.03;4992070;28;20113;-69